sensor_id;sensor_type;location;lat;lon;timestamp;P1;durP1;ratioP1;P2;durP2;ratioP2
17725;SDS011;8983;53.156;17.960;2023-04-03T00:00:49;6.10;;;2.90;;
17725;SDS011;8983;53.156;17.960;2023-04-03T00:03:18;7.47;;;2.90;;
17725;SDS011;8983;53.156;17.960;2023-04-03T00:05:46;10.20;;;2.83;;
17725;SDS011;8983;53.156;17.960;2023-04-03T00:08:16;9.00;;;3.20;;
17725;SDS011;8983;53.156;17.960;2023-04-03T00:10:44;6.07;;;3.00;;
17725;SDS011;8983;53.156;17.960;2023-04-03T00:13:12;12.80;;;4.17;;
17725;SDS011;8983;53.156;17.960;2023-04-03T00:15:41;12.03;;;4.40;;
17725;SDS011;8983;53.156;17.960;2023-04-03T00:18:09;9.17;;;3.57;;
17725;SDS011;8983;53.156;17.960;2023-04-03T00:20:37;7.80;;;3.13;;
17725;SDS011;8983;53.156;17.960;2023-04-03T00:23:05;8.37;;;3.77;;
17725;SDS011;8983;53.156;17.960;2023-04-03T00:25:35;5.37;;;3.10;;
17725;SDS011;8983;53.156;17.960;2023-04-03T00:28:03;7.20;;;3.30;;
17725;SDS011;8983;53.156;17.960;2023-04-03T00:30:32;7.83;;;3.10;;
17725;SDS011;8983;53.156;17.960;2023-04-03T00:33:01;11.40;;;3.67;;
17725;SDS011;8983;53.156;17.960;2023-04-03T00:35:29;6.83;;;2.90;;
17725;SDS011;8983;53.156;17.960;2023-04-03T00:37:58;9.87;;;3.10;;
17725;SDS011;8983;53.156;17.960;2023-04-03T00:40:26;4.33;;;2.90;;
17725;SDS011;8983;53.156;17.960;2023-04-03T00:42:57;4.70;;;3.20;;
17725;SDS011;8983;53.156;17.960;2023-04-03T00:45:28;5.33;;;2.87;;
17725;SDS011;8983;53.156;17.960;2023-04-03T00:48:00;12.00;;;3.33;;
17725;SDS011;8983;53.156;17.960;2023-04-03T00:50:32;7.77;;;3.17;;
17725;SDS011;8983;53.156;17.960;2023-04-03T00:53:04;5.37;;;3.03;;
17725;SDS011;8983;53.156;17.960;2023-04-03T00:55:34;5.17;;;3.10;;
17725;SDS011;8983;53.156;17.960;2023-04-03T00:58:07;6.23;;;2.80;;
17725;SDS011;8983;53.156;17.960;2023-04-03T01:00:35;3.83;;;2.63;;
17725;SDS011;8983;53.156;17.960;2023-04-03T01:03:06;6.60;;;2.93;;
17725;SDS011;8983;53.156;17.960;2023-04-03T01:05:34;4.27;;;2.53;;
17725;SDS011;8983;53.156;17.960;2023-04-03T01:08:02;3.93;;;2.70;;
17725;SDS011;8983;53.156;17.960;2023-04-03T01:10:31;5.70;;;2.53;;
17725;SDS011;8983;53.156;17.960;2023-04-03T01:12:59;7.33;;;2.57;;
17725;SDS011;8983;53.156;17.960;2023-04-03T01:15:29;4.10;;;2.23;;
17725;SDS011;8983;53.156;17.960;2023-04-03T01:18:01;4.13;;;2.67;;
17725;SDS011;8983;53.156;17.960;2023-04-03T01:20:35;2.73;;;2.20;;
17725;SDS011;8983;53.156;17.960;2023-04-03T01:23:32;3.03;;;2.17;;
17725;SDS011;8983;53.156;17.960;2023-04-03T01:26:10;6.77;;;2.37;;
17725;SDS011;8983;53.156;17.960;2023-04-03T01:28:39;5.13;;;2.13;;
17725;SDS011;8983;53.156;17.960;2023-04-03T01:31:10;4.90;;;2.37;;
17725;SDS011;8983;53.156;17.960;2023-04-03T01:33:44;6.00;;;2.40;;
17725;SDS011;8983;53.156;17.960;2023-04-03T01:36:13;7.33;;;2.60;;
17725;SDS011;8983;53.156;17.960;2023-04-03T01:38:43;6.20;;;2.63;;
17725;SDS011;8983;53.156;17.960;2023-04-03T01:41:11;2.60;;;1.90;;
17725;SDS011;8983;53.156;17.960;2023-04-03T01:43:39;3.50;;;2.13;;
17725;SDS011;8983;53.156;17.960;2023-04-03T01:46:06;6.07;;;2.50;;
17725;SDS011;8983;53.156;17.960;2023-04-03T01:48:35;4.07;;;2.00;;
17725;SDS011;8983;53.156;17.960;2023-04-03T01:51:04;5.57;;;2.17;;
17725;SDS011;8983;53.156;17.960;2023-04-03T01:53:32;2.27;;;2.00;;
17725;SDS011;8983;53.156;17.960;2023-04-03T01:56:01;4.30;;;2.17;;
17725;SDS011;8983;53.156;17.960;2023-04-03T01:58:29;5.80;;;2.43;;
17725;SDS011;8983;53.156;17.960;2023-04-03T02:00:57;4.53;;;2.23;;
17725;SDS011;8983;53.156;17.960;2023-04-03T02:03:25;5.20;;;2.40;;
17725;SDS011;8983;53.156;17.960;2023-04-03T02:05:53;3.93;;;2.23;;
17725;SDS011;8983;53.156;17.960;2023-04-03T02:08:22;3.27;;;2.33;;
17725;SDS011;8983;53.156;17.960;2023-04-03T02:10:51;5.53;;;2.20;;
17725;SDS011;8983;53.156;17.960;2023-04-03T02:13:19;6.70;;;2.23;;
17725;SDS011;8983;53.156;17.960;2023-04-03T02:15:47;2.20;;;1.87;;
17725;SDS011;8983;53.156;17.960;2023-04-03T02:18:15;2.50;;;1.90;;
17725;SDS011;8983;53.156;17.960;2023-04-03T02:20:43;5.77;;;2.00;;
17725;SDS011;8983;53.156;17.960;2023-04-03T02:23:11;5.50;;;2.20;;
17725;SDS011;8983;53.156;17.960;2023-04-03T02:25:41;3.83;;;2.13;;
17725;SDS011;8983;53.156;17.960;2023-04-03T02:28:08;3.43;;;2.10;;
17725;SDS011;8983;53.156;17.960;2023-04-03T02:30:37;3.70;;;2.00;;
17725;SDS011;8983;53.156;17.960;2023-04-03T02:33:05;5.13;;;2.40;;
17725;SDS011;8983;53.156;17.960;2023-04-03T02:35:33;6.73;;;2.43;;
17725;SDS011;8983;53.156;17.960;2023-04-03T02:38:03;3.27;;;2.33;;
17725;SDS011;8983;53.156;17.960;2023-04-03T02:40:31;3.20;;;2.10;;
17725;SDS011;8983;53.156;17.960;2023-04-03T02:43:00;5.97;;;2.20;;
17725;SDS011;8983;53.156;17.960;2023-04-03T02:45:28;2.97;;;2.00;;
17725;SDS011;8983;53.156;17.960;2023-04-03T02:47:56;6.93;;;2.20;;
17725;SDS011;8983;53.156;17.960;2023-04-03T02:50:24;5.43;;;2.40;;
17725;SDS011;8983;53.156;17.960;2023-04-03T02:52:52;5.37;;;2.20;;
17725;SDS011;8983;53.156;17.960;2023-04-03T02:55:20;4.63;;;2.30;;
17725;SDS011;8983;53.156;17.960;2023-04-03T02:57:48;4.33;;;2.07;;
17725;SDS011;8983;53.156;17.960;2023-04-03T03:00:18;5.87;;;2.10;;
17725;SDS011;8983;53.156;17.960;2023-04-03T03:02:48;3.87;;;1.90;;
17725;SDS011;8983;53.156;17.960;2023-04-03T03:05:16;3.07;;;1.93;;
17725;SDS011;8983;53.156;17.960;2023-04-03T03:07:44;4.63;;;2.23;;
17725;SDS011;8983;53.156;17.960;2023-04-03T03:10:13;3.23;;;2.20;;
17725;SDS011;8983;53.156;17.960;2023-04-03T03:12:41;6.73;;;2.70;;
17725;SDS011;8983;53.156;17.960;2023-04-03T03:15:09;3.03;;;1.97;;
17725;SDS011;8983;53.156;17.960;2023-04-03T03:17:39;5.77;;;2.33;;
17725;SDS011;8983;53.156;17.960;2023-04-03T03:20:07;2.87;;;2.00;;
17725;SDS011;8983;53.156;17.960;2023-04-03T03:22:36;3.63;;;2.10;;
17725;SDS011;8983;53.156;17.960;2023-04-03T03:25:04;3.97;;;2.27;;
17725;SDS011;8983;53.156;17.960;2023-04-03T03:27:32;5.77;;;2.60;;
17725;SDS011;8983;53.156;17.960;2023-04-03T03:30:00;5.67;;;2.43;;
17725;SDS011;8983;53.156;17.960;2023-04-03T03:32:28;4.77;;;2.63;;
17725;SDS011;8983;53.156;17.960;2023-04-03T03:34:58;3.10;;;2.60;;
17725;SDS011;8983;53.156;17.960;2023-04-03T03:37:26;4.17;;;2.67;;
17725;SDS011;8983;53.156;17.960;2023-04-03T03:39:54;4.50;;;2.67;;
17725;SDS011;8983;53.156;17.960;2023-04-03T03:42:22;5.77;;;2.83;;
17725;SDS011;8983;53.156;17.960;2023-04-03T03:44:50;5.00;;;2.90;;
17725;SDS011;8983;53.156;17.960;2023-04-03T03:47:18;3.83;;;2.27;;
17725;SDS011;8983;53.156;17.960;2023-04-03T03:49:46;4.80;;;2.40;;
17725;SDS011;8983;53.156;17.960;2023-04-03T03:52:15;4.83;;;2.13;;
17725;SDS011;8983;53.156;17.960;2023-04-03T03:54:43;4.17;;;2.30;;
17725;SDS011;8983;53.156;17.960;2023-04-03T03:57:11;5.43;;;2.10;;
17725;SDS011;8983;53.156;17.960;2023-04-03T03:59:39;5.90;;;2.00;;
17725;SDS011;8983;53.156;17.960;2023-04-03T04:02:08;3.50;;;2.20;;
17725;SDS011;8983;53.156;17.960;2023-04-03T04:04:36;3.47;;;2.53;;
17725;SDS011;8983;53.156;17.960;2023-04-03T04:07:04;4.93;;;2.17;;
17725;SDS011;8983;53.156;17.960;2023-04-03T04:09:33;4.50;;;2.60;;
17725;SDS011;8983;53.156;17.960;2023-04-03T04:12:01;5.37;;;1.97;;
17725;SDS011;8983;53.156;17.960;2023-04-03T04:14:29;4.00;;;2.00;;
17725;SDS011;8983;53.156;17.960;2023-04-03T04:16:57;4.87;;;2.00;;
17725;SDS011;8983;53.156;17.960;2023-04-03T04:19:25;1.97;;;1.77;;
17725;SDS011;8983;53.156;17.960;2023-04-03T04:21:53;2.50;;;2.07;;
17725;SDS011;8983;53.156;17.960;2023-04-03T04:24:21;4.10;;;2.00;;
17725;SDS011;8983;53.156;17.960;2023-04-03T04:26:51;7.27;;;2.57;;
17725;SDS011;8983;53.156;17.960;2023-04-03T04:29:19;3.97;;;1.83;;
17725;SDS011;8983;53.156;17.960;2023-04-03T04:31:47;5.30;;;2.23;;
17725;SDS011;8983;53.156;17.960;2023-04-03T04:34:15;4.90;;;2.20;;
17725;SDS011;8983;53.156;17.960;2023-04-03T04:36:43;2.40;;;1.90;;
17725;SDS011;8983;53.156;17.960;2023-04-03T04:39:12;3.50;;;2.00;;
17725;SDS011;8983;53.156;17.960;2023-04-03T04:41:39;5.67;;;2.00;;
17725;SDS011;8983;53.156;17.960;2023-04-03T04:44:09;2.23;;;1.93;;
17725;SDS011;8983;53.156;17.960;2023-04-03T04:46:37;2.37;;;2.00;;
17725;SDS011;8983;53.156;17.960;2023-04-03T04:49:08;2.97;;;2.60;;
17725;SDS011;8983;53.156;17.960;2023-04-03T04:51:36;3.27;;;2.20;;
17725;SDS011;8983;53.156;17.960;2023-04-03T04:54:17;4.77;;;2.50;;
17725;SDS011;8983;53.156;17.960;2023-04-03T04:56:45;4.43;;;2.60;;
17725;SDS011;8983;53.156;17.960;2023-04-03T04:59:14;5.47;;;2.50;;
17725;SDS011;8983;53.156;17.960;2023-04-03T05:01:44;4.87;;;2.00;;
17725;SDS011;8983;53.156;17.960;2023-04-03T05:04:12;2.67;;;2.30;;
17725;SDS011;8983;53.156;17.960;2023-04-03T05:06:41;3.40;;;2.20;;
17725;SDS011;8983;53.156;17.960;2023-04-03T05:09:09;5.90;;;2.43;;
17725;SDS011;8983;53.156;17.960;2023-04-03T05:11:37;4.27;;;2.37;;
17725;SDS011;8983;53.156;17.960;2023-04-03T05:14:05;4.13;;;2.40;;
17725;SDS011;8983;53.156;17.960;2023-04-03T05:16:35;3.23;;;2.20;;
17725;SDS011;8983;53.156;17.960;2023-04-03T05:19:03;3.23;;;2.40;;
17725;SDS011;8983;53.156;17.960;2023-04-03T05:21:31;6.00;;;2.77;;
17725;SDS011;8983;53.156;17.960;2023-04-03T05:23:59;5.67;;;2.33;;
17725;SDS011;8983;53.156;17.960;2023-04-03T05:26:29;4.50;;;2.50;;
17725;SDS011;8983;53.156;17.960;2023-04-03T05:28:57;4.63;;;2.33;;
17725;SDS011;8983;53.156;17.960;2023-04-03T05:31:25;3.07;;;2.03;;
17725;SDS011;8983;53.156;17.960;2023-04-03T05:33:57;2.83;;;2.00;;
17725;SDS011;8983;53.156;17.960;2023-04-03T05:36:25;5.60;;;2.30;;
17725;SDS011;8983;53.156;17.960;2023-04-03T05:38:53;4.77;;;2.40;;
17725;SDS011;8983;53.156;17.960;2023-04-03T05:41:22;3.63;;;2.13;;
17725;SDS011;8983;53.156;17.960;2023-04-03T05:43:51;2.50;;;2.10;;
17725;SDS011;8983;53.156;17.960;2023-04-03T05:46:19;5.97;;;2.50;;
17725;SDS011;8983;53.156;17.960;2023-04-03T05:48:48;3.80;;;2.07;;
17725;SDS011;8983;53.156;17.960;2023-04-03T05:51:18;4.23;;;2.23;;
17725;SDS011;8983;53.156;17.960;2023-04-03T05:53:48;2.50;;;1.87;;
17725;SDS011;8983;53.156;17.960;2023-04-03T05:56:23;2.37;;;2.17;;
17725;SDS011;8983;53.156;17.960;2023-04-03T05:58:51;2.30;;;2.10;;
17725;SDS011;8983;53.156;17.960;2023-04-03T06:01:19;2.10;;;1.90;;
17725;SDS011;8983;53.156;17.960;2023-04-03T06:03:47;3.50;;;1.90;;
17725;SDS011;8983;53.156;17.960;2023-04-03T06:06:17;3.40;;;2.00;;
17725;SDS011;8983;53.156;17.960;2023-04-03T06:08:46;2.63;;;1.73;;
17725;SDS011;8983;53.156;17.960;2023-04-03T06:11:14;4.90;;;2.00;;
17725;SDS011;8983;53.156;17.960;2023-04-03T06:13:42;3.50;;;1.53;;
17725;SDS011;8983;53.156;17.960;2023-04-03T06:16:12;2.33;;;1.97;;
17725;SDS011;8983;53.156;17.960;2023-04-03T06:18:41;2.27;;;2.00;;
17725;SDS011;8983;53.156;17.960;2023-04-03T06:21:09;6.37;;;2.27;;
17725;SDS011;8983;53.156;17.960;2023-04-03T06:23:39;3.43;;;1.90;;
17725;SDS011;8983;53.156;17.960;2023-04-03T06:26:07;3.37;;;2.00;;
17725;SDS011;8983;53.156;17.960;2023-04-03T06:28:35;2.30;;;2.10;;
17725;SDS011;8983;53.156;17.960;2023-04-03T06:31:03;2.13;;;1.93;;
17725;SDS011;8983;53.156;17.960;2023-04-03T06:33:31;3.73;;;2.30;;
17725;SDS011;8983;53.156;17.960;2023-04-03T06:35:59;6.17;;;2.80;;
17725;SDS011;8983;53.156;17.960;2023-04-03T06:38:28;2.43;;;2.23;;
17725;SDS011;8983;53.156;17.960;2023-04-03T06:40:57;2.10;;;1.90;;
17725;SDS011;8983;53.156;17.960;2023-04-03T06:43:25;2.00;;;1.80;;
17725;SDS011;8983;53.156;17.960;2023-04-03T06:45:53;2.90;;;1.87;;
17725;SDS011;8983;53.156;17.960;2023-04-03T06:48:21;2.90;;;1.60;;
17725;SDS011;8983;53.156;17.960;2023-04-03T06:50:50;3.50;;;1.70;;
17725;SDS011;8983;53.156;17.960;2023-04-03T06:53:18;3.17;;;1.70;;
17725;SDS011;8983;53.156;17.960;2023-04-03T06:55:46;3.57;;;1.80;;
17725;SDS011;8983;53.156;17.960;2023-04-03T06:58:15;2.60;;;1.87;;
17725;SDS011;8983;53.156;17.960;2023-04-03T07:00:47;2.20;;;1.80;;
17725;SDS011;8983;53.156;17.960;2023-04-03T07:03:15;2.27;;;2.03;;
17725;SDS011;8983;53.156;17.960;2023-04-03T07:05:44;4.30;;;2.23;;
17725;SDS011;8983;53.156;17.960;2023-04-03T07:08:12;1.97;;;1.80;;
17725;SDS011;8983;53.156;17.960;2023-04-03T07:10:40;1.67;;;1.57;;
17725;SDS011;8983;53.156;17.960;2023-04-03T07:13:08;3.10;;;1.97;;
17725;SDS011;8983;53.156;17.960;2023-04-03T07:15:37;5.07;;;2.13;;
17725;SDS011;8983;53.156;17.960;2023-04-03T07:18:06;2.73;;;1.90;;
17725;SDS011;8983;53.156;17.960;2023-04-03T07:20:34;1.97;;;1.83;;
17725;SDS011;8983;53.156;17.960;2023-04-03T07:23:02;3.77;;;2.10;;
17725;SDS011;8983;53.156;17.960;2023-04-03T07:25:31;2.00;;;1.87;;
17725;SDS011;8983;53.156;17.960;2023-04-03T07:28:00;3.03;;;1.90;;
17725;SDS011;8983;53.156;17.960;2023-04-03T07:30:28;2.10;;;1.93;;
17725;SDS011;8983;53.156;17.960;2023-04-03T07:32:58;4.73;;;2.13;;
17725;SDS011;8983;53.156;17.960;2023-04-03T07:35:27;2.43;;;1.60;;
17725;SDS011;8983;53.156;17.960;2023-04-03T07:37:55;1.80;;;1.70;;
17725;SDS011;8983;53.156;17.960;2023-04-03T07:40:23;2.57;;;1.80;;
17725;SDS011;8983;53.156;17.960;2023-04-03T07:42:51;3.87;;;1.90;;
17725;SDS011;8983;53.156;17.960;2023-04-03T07:45:19;1.77;;;1.67;;
17725;SDS011;8983;53.156;17.960;2023-04-03T07:47:48;2.60;;;1.87;;
17725;SDS011;8983;53.156;17.960;2023-04-03T07:50:18;1.80;;;1.60;;
17725;SDS011;8983;53.156;17.960;2023-04-03T07:52:46;2.83;;;2.13;;
17725;SDS011;8983;53.156;17.960;2023-04-03T07:55:15;4.23;;;1.90;;
17725;SDS011;8983;53.156;17.960;2023-04-03T07:57:43;3.50;;;1.80;;
17725;SDS011;8983;53.156;17.960;2023-04-03T08:00:11;4.70;;;1.83;;
17725;SDS011;8983;53.156;17.960;2023-04-03T08:02:40;2.90;;;1.87;;
17725;SDS011;8983;53.156;17.960;2023-04-03T08:05:09;1.97;;;1.77;;
17725;SDS011;8983;53.156;17.960;2023-04-03T08:07:38;2.00;;;1.80;;
17725;SDS011;8983;53.156;17.960;2023-04-03T08:10:07;2.93;;;1.80;;
17725;SDS011;8983;53.156;17.960;2023-04-03T08:12:35;3.53;;;1.80;;
17725;SDS011;8983;53.156;17.960;2023-04-03T08:15:04;1.70;;;1.60;;
17725;SDS011;8983;53.156;17.960;2023-04-03T08:17:33;2.87;;;1.70;;
17725;SDS011;8983;53.156;17.960;2023-04-03T08:20:02;2.23;;;1.87;;
17725;SDS011;8983;53.156;17.960;2023-04-03T08:22:30;3.40;;;2.00;;
17725;SDS011;8983;53.156;17.960;2023-04-03T08:25:00;1.93;;;1.73;;
17725;SDS011;8983;53.156;17.960;2023-04-03T08:27:29;1.70;;;1.60;;
17725;SDS011;8983;53.156;17.960;2023-04-03T08:29:59;2.00;;;1.80;;
17725;SDS011;8983;53.156;17.960;2023-04-03T08:32:27;1.93;;;1.57;;
17725;SDS011;8983;53.156;17.960;2023-04-03T08:34:55;3.47;;;2.10;;
17725;SDS011;8983;53.156;17.960;2023-04-03T08:37:23;1.87;;;1.50;;
17725;SDS011;8983;53.156;17.960;2023-04-03T08:39:51;1.93;;;1.80;;
17725;SDS011;8983;53.156;17.960;2023-04-03T08:42:24;3.70;;;1.77;;
17725;SDS011;8983;53.156;17.960;2023-04-03T08:45:03;1.87;;;1.70;;
17725;SDS011;8983;53.156;17.960;2023-04-03T08:47:38;2.37;;;1.80;;
17725;SDS011;8983;53.156;17.960;2023-04-03T08:50:11;3.50;;;1.77;;
17725;SDS011;8983;53.156;17.960;2023-04-03T08:52:41;3.37;;;1.80;;
17725;SDS011;8983;53.156;17.960;2023-04-03T08:55:14;3.47;;;1.60;;
17725;SDS011;8983;53.156;17.960;2023-04-03T08:57:50;2.37;;;1.87;;
17725;SDS011;8983;53.156;17.960;2023-04-03T09:00:25;3.57;;;2.03;;
17725;SDS011;8983;53.156;17.960;2023-04-03T09:02:57;2.53;;;1.70;;
17725;SDS011;8983;53.156;17.960;2023-04-03T09:05:29;1.90;;;1.37;;
17725;SDS011;8983;53.156;17.960;2023-04-03T09:08:09;5.50;;;1.97;;
17725;SDS011;8983;53.156;17.960;2023-04-03T09:10:44;3.07;;;1.90;;
17725;SDS011;8983;53.156;17.960;2023-04-03T09:13:17;2.37;;;1.73;;
17725;SDS011;8983;53.156;17.960;2023-04-03T09:15:52;3.30;;;1.67;;
17725;SDS011;8983;53.156;17.960;2023-04-03T09:18:22;2.33;;;1.93;;
17725;SDS011;8983;53.156;17.960;2023-04-03T09:20:56;2.90;;;2.03;;
17725;SDS011;8983;53.156;17.960;2023-04-03T09:23:30;1.60;;;1.50;;
17725;SDS011;8983;53.156;17.960;2023-04-03T09:26:05;2.87;;;1.93;;
17725;SDS011;8983;53.156;17.960;2023-04-03T09:28:40;3.00;;;2.20;;
17725;SDS011;8983;53.156;17.960;2023-04-03T09:31:18;2.73;;;1.90;;
17725;SDS011;8983;53.156;17.960;2023-04-03T09:33:49;2.23;;;1.70;;
17725;SDS011;8983;53.156;17.960;2023-04-03T09:36:39;2.17;;;1.90;;
17725;SDS011;8983;53.156;17.960;2023-04-03T09:39:10;2.27;;;1.60;;
17725;SDS011;8983;53.156;17.960;2023-04-03T09:41:42;2.67;;;1.80;;
17725;SDS011;8983;53.156;17.960;2023-04-03T09:44:24;2.33;;;2.10;;
17725;SDS011;8983;53.156;17.960;2023-04-03T09:46:53;4.00;;;1.77;;
17725;SDS011;8983;53.156;17.960;2023-04-03T09:49:21;2.53;;;1.80;;
17725;SDS011;8983;53.156;17.960;2023-04-03T09:51:50;2.20;;;1.80;;
17725;SDS011;8983;53.156;17.960;2023-04-03T09:54:24;3.10;;;2.07;;
17725;SDS011;8983;53.156;17.960;2023-04-03T09:57:07;2.87;;;1.80;;
17725;SDS011;8983;53.156;17.960;2023-04-03T09:59:45;3.83;;;1.87;;
17725;SDS011;8983;53.156;17.960;2023-04-03T10:02:22;3.77;;;1.67;;
17725;SDS011;8983;53.156;17.960;2023-04-03T10:04:59;1.53;;;1.43;;
17725;SDS011;8983;53.156;17.960;2023-04-03T10:07:31;3.50;;;2.17;;
17725;SDS011;8983;53.156;17.960;2023-04-03T10:10:02;2.70;;;1.80;;
17725;SDS011;8983;53.156;17.960;2023-04-03T10:13:03;2.70;;;1.80;;
17725;SDS011;8983;53.156;17.960;2023-04-03T10:15:38;2.70;;;1.80;;
17725;SDS011;8983;53.156;17.960;2023-04-03T10:18:15;2.00;;;1.80;;
17725;SDS011;8983;53.156;17.960;2023-04-03T10:20:57;2.17;;;1.70;;
17725;SDS011;8983;53.156;17.960;2023-04-03T10:23:44;3.57;;;1.40;;
17725;SDS011;8983;53.156;17.960;2023-04-03T10:26:17;1.57;;;1.47;;
17725;SDS011;8983;53.156;17.960;2023-04-03T10:28:57;2.00;;;1.77;;
17725;SDS011;8983;53.156;17.960;2023-04-03T10:31:37;2.30;;;1.33;;
17725;SDS011;8983;53.156;17.960;2023-04-03T10:34:15;2.73;;;1.90;;
17725;SDS011;8983;53.156;17.960;2023-04-03T10:36:50;2.63;;;1.50;;
17725;SDS011;8983;53.156;17.960;2023-04-03T10:39:26;1.37;;;1.27;;
17725;SDS011;8983;53.156;17.960;2023-04-03T10:42:03;2.40;;;1.60;;
17725;SDS011;8983;53.156;17.960;2023-04-03T10:44:52;2.50;;;1.70;;
17725;SDS011;8983;53.156;17.960;2023-04-03T10:47:32;2.80;;;1.43;;
17725;SDS011;8983;53.156;17.960;2023-04-03T10:50:12;1.83;;;1.40;;
17725;SDS011;8983;53.156;17.960;2023-04-03T10:52:52;1.93;;;1.47;;
17725;SDS011;8983;53.156;17.960;2023-04-03T10:55:28;2.63;;;1.43;;
17725;SDS011;8983;53.156;17.960;2023-04-03T10:58:03;1.47;;;1.37;;
17725;SDS011;8983;53.156;17.960;2023-04-03T11:00:35;2.67;;;1.30;;
17725;SDS011;8983;53.156;17.960;2023-04-03T11:03:08;1.73;;;1.50;;
17725;SDS011;8983;53.156;17.960;2023-04-03T11:05:42;2.47;;;1.73;;
17725;SDS011;8983;53.156;17.960;2023-04-03T11:08:15;3.37;;;1.60;;
17725;SDS011;8983;53.156;17.960;2023-04-03T11:10:54;1.80;;;1.43;;
17725;SDS011;8983;53.156;17.960;2023-04-03T11:13:27;2.40;;;1.30;;
17725;SDS011;8983;53.156;17.960;2023-04-03T11:16:00;3.47;;;1.90;;
17725;SDS011;8983;53.156;17.960;2023-04-03T11:18:32;1.87;;;1.30;;
17725;SDS011;8983;53.156;17.960;2023-04-03T11:21:06;1.37;;;1.27;;
17725;SDS011;8983;53.156;17.960;2023-04-03T11:23:37;1.60;;;1.50;;
17725;SDS011;8983;53.156;17.960;2023-04-03T11:26:15;1.40;;;1.30;;
17725;SDS011;8983;53.156;17.960;2023-04-03T11:28:51;1.53;;;1.27;;
17725;SDS011;8983;53.156;17.960;2023-04-03T11:31:24;2.07;;;1.40;;
17725;SDS011;8983;53.156;17.960;2023-04-03T11:34:05;1.50;;;1.20;;
17725;SDS011;8983;53.156;17.960;2023-04-03T11:36:42;1.80;;;1.43;;
17725;SDS011;8983;53.156;17.960;2023-04-03T11:39:17;1.93;;;1.30;;
17725;SDS011;8983;53.156;17.960;2023-04-03T11:41:50;2.70;;;1.60;;
17725;SDS011;8983;53.156;17.960;2023-04-03T11:44:38;1.63;;;1.27;;
17725;SDS011;8983;53.156;17.960;2023-04-03T11:47:08;1.10;;;1.10;;
17725;SDS011;8983;53.156;17.960;2023-04-03T11:49:52;1.83;;;1.40;;
17725;SDS011;8983;53.156;17.960;2023-04-03T12:01:51;1.60;;;1.50;;
17725;SDS011;8983;53.156;17.960;2023-04-03T12:04:20;2.57;;;1.30;;
17725;SDS011;8983;53.156;17.960;2023-04-03T12:06:53;1.43;;;1.33;;
17725;SDS011;8983;53.156;17.960;2023-04-03T12:12:31;2.60;;;1.80;;
17725;SDS011;8983;53.156;17.960;2023-04-03T12:15:25;1.67;;;1.40;;
17725;SDS011;8983;53.156;17.960;2023-04-03T12:21:17;2.03;;;1.80;;
17725;SDS011;8983;53.156;17.960;2023-04-03T12:24:04;2.27;;;1.40;;
17725;SDS011;8983;53.156;17.960;2023-04-03T12:26:51;1.63;;;1.53;;
17725;SDS011;8983;53.156;17.960;2023-04-03T12:29:33;2.13;;;1.60;;
17725;SDS011;8983;53.156;17.960;2023-04-03T12:32:14;4.10;;;1.40;;
17725;SDS011;8983;53.156;17.960;2023-04-03T12:34:57;1.53;;;1.37;;
17725;SDS011;8983;53.156;17.960;2023-04-03T12:37:43;1.63;;;1.40;;
17725;SDS011;8983;53.156;17.960;2023-04-03T12:40:27;1.67;;;1.57;;
17725;SDS011;8983;53.156;17.960;2023-04-03T12:43:02;1.60;;;1.50;;
17725;SDS011;8983;53.156;17.960;2023-04-03T12:46:00;1.80;;;1.40;;
17725;SDS011;8983;53.156;17.960;2023-04-03T12:48:32;1.87;;;1.70;;
17725;SDS011;8983;53.156;17.960;2023-04-03T12:51:06;1.63;;;1.30;;
17725;SDS011;8983;53.156;17.960;2023-04-03T12:53:35;1.67;;;1.47;;
17725;SDS011;8983;53.156;17.960;2023-04-03T12:56:23;2.63;;;1.67;;
17725;SDS011;8983;53.156;17.960;2023-04-03T12:58:53;2.10;;;1.40;;
17725;SDS011;8983;53.156;17.960;2023-04-03T13:01:24;1.50;;;1.40;;
17725;SDS011;8983;53.156;17.960;2023-04-03T13:03:53;1.47;;;1.37;;
17725;SDS011;8983;53.156;17.960;2023-04-03T13:06:24;2.63;;;1.40;;
17725;SDS011;8983;53.156;17.960;2023-04-03T13:08:56;1.30;;;1.20;;
17725;SDS011;8983;53.156;17.960;2023-04-03T13:11:27;1.47;;;1.37;;
17725;SDS011;8983;53.156;17.960;2023-04-03T13:14:00;2.30;;;1.63;;
17725;SDS011;8983;53.156;17.960;2023-04-03T13:16:31;2.30;;;1.50;;
17725;SDS011;8983;53.156;17.960;2023-04-03T13:19:00;2.17;;;1.53;;
17725;SDS011;8983;53.156;17.960;2023-04-03T13:21:29;1.50;;;1.27;;
17725;SDS011;8983;53.156;17.960;2023-04-03T13:24:01;1.50;;;1.40;;
17725;SDS011;8983;53.156;17.960;2023-04-03T13:26:42;1.43;;;1.33;;
17725;SDS011;8983;53.156;17.960;2023-04-03T13:29:18;1.90;;;1.50;;
17725;SDS011;8983;53.156;17.960;2023-04-03T13:31:57;2.00;;;1.70;;
17725;SDS011;8983;53.156;17.960;2023-04-03T13:34:27;1.50;;;1.40;;
17725;SDS011;8983;53.156;17.960;2023-04-03T13:37:02;2.33;;;1.30;;
17725;SDS011;8983;53.156;17.960;2023-04-03T13:39:32;3.43;;;1.63;;
17725;SDS011;8983;53.156;17.960;2023-04-03T13:42:14;2.57;;;1.37;;
17725;SDS011;8983;53.156;17.960;2023-04-03T13:45:18;2.20;;;1.60;;
17725;SDS011;8983;53.156;17.960;2023-04-03T13:47:50;2.37;;;1.80;;
17725;SDS011;8983;53.156;17.960;2023-04-03T13:50:21;2.53;;;1.60;;
17725;SDS011;8983;53.156;17.960;2023-04-03T13:52:52;3.13;;;1.70;;
17725;SDS011;8983;53.156;17.960;2023-04-03T13:55:22;2.33;;;1.67;;
17725;SDS011;8983;53.156;17.960;2023-04-03T13:57:55;2.40;;;1.40;;
17725;SDS011;8983;53.156;17.960;2023-04-03T14:00:31;1.90;;;1.50;;
17725;SDS011;8983;53.156;17.960;2023-04-03T14:03:11;3.03;;;1.90;;
17725;SDS011;8983;53.156;17.960;2023-04-03T14:05:40;4.90;;;1.53;;
17725;SDS011;8983;53.156;17.960;2023-04-03T14:08:08;3.97;;;1.53;;
17725;SDS011;8983;53.156;17.960;2023-04-03T14:10:36;2.27;;;1.77;;
17725;SDS011;8983;53.156;17.960;2023-04-03T14:13:06;2.60;;;1.90;;
17725;SDS011;8983;53.156;17.960;2023-04-03T14:15:36;3.07;;;1.70;;
17725;SDS011;8983;53.156;17.960;2023-04-03T14:18:04;1.60;;;1.50;;
17725;SDS011;8983;53.156;17.960;2023-04-03T14:20:33;1.97;;;1.60;;
17725;SDS011;8983;53.156;17.960;2023-04-03T14:23:01;3.03;;;1.73;;
17725;SDS011;8983;53.156;17.960;2023-04-03T14:25:30;3.10;;;1.70;;
17725;SDS011;8983;53.156;17.960;2023-04-03T14:27:58;2.27;;;1.83;;
17725;SDS011;8983;53.156;17.960;2023-04-03T14:30:28;2.37;;;1.70;;
17725;SDS011;8983;53.156;17.960;2023-04-03T14:32:58;2.27;;;1.50;;
17725;SDS011;8983;53.156;17.960;2023-04-03T14:35:27;3.57;;;1.80;;
17725;SDS011;8983;53.156;17.960;2023-04-03T14:37:55;2.63;;;1.90;;
17725;SDS011;8983;53.156;17.960;2023-04-03T14:40:25;2.27;;;2.07;;
17725;SDS011;8983;53.156;17.960;2023-04-03T14:42:54;2.73;;;2.07;;
17725;SDS011;8983;53.156;17.960;2023-04-03T14:45:23;3.37;;;2.13;;
17725;SDS011;8983;53.156;17.960;2023-04-03T14:47:54;3.93;;;2.90;;
17725;SDS011;8983;53.156;17.960;2023-04-03T14:50:24;5.87;;;2.23;;
17725;SDS011;8983;53.156;17.960;2023-04-03T14:52:54;3.60;;;1.70;;
17725;SDS011;8983;53.156;17.960;2023-04-03T14:55:24;3.57;;;1.80;;
17725;SDS011;8983;53.156;17.960;2023-04-03T14:57:53;4.47;;;2.20;;
17725;SDS011;8983;53.156;17.960;2023-04-03T15:00:22;2.67;;;1.70;;
17725;SDS011;8983;53.156;17.960;2023-04-03T15:02:50;1.70;;;1.60;;
17725;SDS011;8983;53.156;17.960;2023-04-03T15:05:20;3.50;;;1.60;;
17725;SDS011;8983;53.156;17.960;2023-04-03T15:07:49;2.77;;;1.60;;
17725;SDS011;8983;53.156;17.960;2023-04-03T15:10:21;2.20;;;2.00;;
17725;SDS011;8983;53.156;17.960;2023-04-03T15:12:52;3.70;;;2.10;;
17725;SDS011;8983;53.156;17.960;2023-04-03T15:15:21;2.37;;;1.60;;
17725;SDS011;8983;53.156;17.960;2023-04-03T15:17:51;1.80;;;1.70;;
17725;SDS011;8983;53.156;17.960;2023-04-03T15:20:23;3.27;;;1.40;;
17725;SDS011;8983;53.156;17.960;2023-04-03T15:22:53;3.60;;;1.83;;
17725;SDS011;8983;53.156;17.960;2023-04-03T15:25:22;1.57;;;1.47;;
17725;SDS011;8983;53.156;17.960;2023-04-03T15:27:52;3.03;;;1.80;;